Terminal Aerodrome Forecast
Issued by NWS Pittsburgh, PA

Home | Current Version | Previous Version | Text Only | Print | Product List | Glossary On
Versions: 1 2 3 4 5 6 7 8 9 10 11 12 13 14 15 16 17 18 19 20 21 22 23 24 25 26 27 28 29
000
FTUS41 KPBZ 011100
TAFPIT
TAF
KPIT 011120Z 0112/0218 15006KT 1SM -SN VV010
      TEMPO 0112/0116 1/2SM SN OVC008
     FM020200 26006KT 3SM -SN OVC015
     FM020700 28010KT 6SM -SN OVC010
     FM021300 27010KT P6SM OVC025=

USA.gov is the U.S. government's official web portal to all federal, state and local government web resources and services.